sensor_id;sensor_type;location;lat;lon;timestamp;temperature;humidity
13850;DHT22;6995;52.618;13.488;2023-03-30T00:09:59;9.40;99.90
13850;DHT22;6995;52.618;13.488;2023-03-30T00:16:32;9.40;99.90
13850;DHT22;6995;52.618;13.488;2023-03-30T00:19:19;9.30;99.90
13850;DHT22;6995;52.618;13.488;2023-03-30T00:22:16;9.30;99.90
13850;DHT22;6995;52.618;13.488;2023-03-30T00:24:50;9.30;99.90
13850;DHT22;6995;52.618;13.488;2023-03-30T00:27:21;9.30;99.90
13850;DHT22;6995;52.618;13.488;2023-03-30T00:29:50;9.20;99.90
13850;DHT22;6995;52.618;13.488;2023-03-30T00:32:56;9.20;99.90
13850;DHT22;6995;52.618;13.488;2023-03-30T00:41:32;9.20;99.90
13850;DHT22;6995;52.618;13.488;2023-03-30T00:50:25;9.20;99.90
13850;DHT22;6995;52.618;13.488;2023-03-30T01:04:48;9.10;99.90
13850;DHT22;6995;52.618;13.488;2023-03-30T01:40:30;9.00;1.00
13850;DHT22;6995;52.618;13.488;2023-03-30T01:46:44;8.90;1.00
13850;DHT22;6995;52.618;13.488;2023-03-30T01:54:59;8.90;1.00
13850;DHT22;6995;52.618;13.488;2023-03-30T02:00:49;8.90;1.00
13850;DHT22;6995;52.618;13.488;2023-03-30T02:03:28;8.90;1.00
13850;DHT22;6995;52.618;13.488;2023-03-30T02:06:34;8.90;1.00
13850;DHT22;6995;52.618;13.488;2023-03-30T02:09:24;8.90;1.00
13850;DHT22;6995;52.618;13.488;2023-03-30T02:11:59;8.90;1.00
13850;DHT22;6995;52.618;13.488;2023-03-30T02:14:34;8.90;1.00
13850;DHT22;6995;52.618;13.488;2023-03-30T02:17:07;9.00;1.00
13850;DHT22;6995;52.618;13.488;2023-03-30T02:19:40;9.00;1.00
13850;DHT22;6995;52.618;13.488;2023-03-30T02:22:15;9.00;1.00
13850;DHT22;6995;52.618;13.488;2023-03-30T02:25:09;9.00;1.00
13850;DHT22;6995;52.618;13.488;2023-03-30T02:28:05;9.00;1.00
13850;DHT22;6995;52.618;13.488;2023-03-30T02:30:43;9.00;1.00
13850;DHT22;6995;52.618;13.488;2023-03-30T02:39:41;8.90;1.00
13850;DHT22;6995;52.618;13.488;2023-03-30T02:50:59;8.90;1.00
13850;DHT22;6995;52.618;13.488;2023-03-30T02:56:26;8.90;1.00
13850;DHT22;6995;52.618;13.488;2023-03-30T03:02:32;8.90;1.00
13850;DHT22;6995;52.618;13.488;2023-03-30T03:05:07;8.80;1.00
13850;DHT22;6995;52.618;13.488;2023-03-30T03:08:00;8.80;1.00
13850;DHT22;6995;52.618;13.488;2023-03-30T03:10:50;8.80;1.00
13850;DHT22;6995;52.618;13.488;2023-03-30T03:13:38;8.80;1.00
13850;DHT22;6995;52.618;13.488;2023-03-30T03:16:33;8.80;1.00
13850;DHT22;6995;52.618;13.488;2023-03-30T03:19:22;8.80;1.00
13850;DHT22;6995;52.618;13.488;2023-03-30T03:22:05;8.70;1.00
13850;DHT22;6995;52.618;13.488;2023-03-30T03:24:35;8.70;1.00
13850;DHT22;6995;52.618;13.488;2023-03-30T03:30:08;8.90;1.00
13850;DHT22;6995;52.618;13.488;2023-03-30T03:32:53;9.00;1.00
13850;DHT22;6995;52.618;13.488;2023-03-30T03:36:08;9.00;1.00
13850;DHT22;6995;52.618;13.488;2023-03-30T03:42:33;9.00;1.00
13850;DHT22;6995;52.618;13.488;2023-03-30T03:46:14;8.90;1.00
13850;DHT22;6995;52.618;13.488;2023-03-30T03:49:06;8.90;1.00
13850;DHT22;6995;52.618;13.488;2023-03-30T03:51:54;8.90;1.00
13850;DHT22;6995;52.618;13.488;2023-03-30T03:54:43;9.00;1.00
13850;DHT22;6995;52.618;13.488;2023-03-30T03:57:32;9.00;1.00
13850;DHT22;6995;52.618;13.488;2023-03-30T03:59:59;9.10;1.00
13850;DHT22;6995;52.618;13.488;2023-03-30T04:02:30;9.10;1.00
13850;DHT22;6995;52.618;13.488;2023-03-30T04:04:56;9.20;1.00
13850;DHT22;6995;52.618;13.488;2023-03-30T04:07:23;9.20;1.00
13850;DHT22;6995;52.618;13.488;2023-03-30T04:09:52;9.10;1.00
13850;DHT22;6995;52.618;13.488;2023-03-30T04:12:30;9.00;1.00
13850;DHT22;6995;52.618;13.488;2023-03-30T04:15:22;9.00;1.00
13850;DHT22;6995;52.618;13.488;2023-03-30T04:17:57;9.10;1.00
13850;DHT22;6995;52.618;13.488;2023-03-30T04:20:42;9.10;1.00
13850;DHT22;6995;52.618;13.488;2023-03-30T04:23:10;9.10;1.00
13850;DHT22;6995;52.618;13.488;2023-03-30T04:25:46;9.10;1.00
13850;DHT22;6995;52.618;13.488;2023-03-30T04:28:23;9.00;1.00
13850;DHT22;6995;52.618;13.488;2023-03-30T04:31:03;9.10;1.00
13850;DHT22;6995;52.618;13.488;2023-03-30T04:33:44;9.10;1.00
13850;DHT22;6995;52.618;13.488;2023-03-30T04:36:18;9.10;1.00
13850;DHT22;6995;52.618;13.488;2023-03-30T04:38:48;9.20;1.00
13850;DHT22;6995;52.618;13.488;2023-03-30T04:41:30;9.20;1.00
13850;DHT22;6995;52.618;13.488;2023-03-30T04:44:26;9.30;1.00
13850;DHT22;6995;52.618;13.488;2023-03-30T04:46:56;9.30;1.00
13850;DHT22;6995;52.618;13.488;2023-03-30T04:49:22;9.30;1.00
13850;DHT22;6995;52.618;13.488;2023-03-30T04:51:50;9.40;1.00
13850;DHT22;6995;52.618;13.488;2023-03-30T04:54:23;9.40;1.00
13850;DHT22;6995;52.618;13.488;2023-03-30T04:57:17;9.40;1.00
13850;DHT22;6995;52.618;13.488;2023-03-30T04:59:47;9.40;1.00
13850;DHT22;6995;52.618;13.488;2023-03-30T05:02:16;9.40;1.00
13850;DHT22;6995;52.618;13.488;2023-03-30T05:04:43;9.40;1.00
13850;DHT22;6995;52.618;13.488;2023-03-30T05:07:12;9.40;1.00
13850;DHT22;6995;52.618;13.488;2023-03-30T05:09:49;9.30;1.00
13850;DHT22;6995;52.618;13.488;2023-03-30T05:12:18;9.30;1.00
13850;DHT22;6995;52.618;13.488;2023-03-30T05:14:53;9.40;1.00
13850;DHT22;6995;52.618;13.488;2023-03-30T05:17:20;9.40;1.00
13850;DHT22;6995;52.618;13.488;2023-03-30T05:19:46;9.30;1.00
13850;DHT22;6995;52.618;13.488;2023-03-30T05:22:16;9.40;1.00
13850;DHT22;6995;52.618;13.488;2023-03-30T05:24:42;9.40;1.00
13850;DHT22;6995;52.618;13.488;2023-03-30T05:27:12;9.40;1.00
13850;DHT22;6995;52.618;13.488;2023-03-30T05:29:38;9.50;1.00
13850;DHT22;6995;52.618;13.488;2023-03-30T05:32:09;9.60;1.00
13850;DHT22;6995;52.618;13.488;2023-03-30T05:34:37;9.60;1.00
13850;DHT22;6995;52.618;13.488;2023-03-30T05:37:09;9.70;1.00
13850;DHT22;6995;52.618;13.488;2023-03-30T05:39:40;9.80;1.00
13850;DHT22;6995;52.618;13.488;2023-03-30T05:42:06;9.70;1.00
13850;DHT22;6995;52.618;13.488;2023-03-30T05:44:37;9.70;1.00
13850;DHT22;6995;52.618;13.488;2023-03-30T05:47:02;9.60;1.00
13850;DHT22;6995;52.618;13.488;2023-03-30T05:49:28;9.70;1.00
13850;DHT22;6995;52.618;13.488;2023-03-30T05:51:58;9.70;1.00
13850;DHT22;6995;52.618;13.488;2023-03-30T05:54:25;9.70;1.00
13850;DHT22;6995;52.618;13.488;2023-03-30T05:56:52;9.70;1.00
13850;DHT22;6995;52.618;13.488;2023-03-30T05:59:17;9.60;1.00
13850;DHT22;6995;52.618;13.488;2023-03-30T06:01:43;9.70;1.00
13850;DHT22;6995;52.618;13.488;2023-03-30T06:04:13;9.70;1.00
13850;DHT22;6995;52.618;13.488;2023-03-30T06:06:40;9.60;1.00
13850;DHT22;6995;52.618;13.488;2023-03-30T06:09:09;9.60;1.00
13850;DHT22;6995;52.618;13.488;2023-03-30T06:11:35;9.60;1.00
13850;DHT22;6995;52.618;13.488;2023-03-30T06:14:01;9.60;1.00
13850;DHT22;6995;52.618;13.488;2023-03-30T06:16:30;9.70;1.00
13850;DHT22;6995;52.618;13.488;2023-03-30T06:18:58;9.70;1.00
13850;DHT22;6995;52.618;13.488;2023-03-30T06:21:24;9.80;1.00
13850;DHT22;6995;52.618;13.488;2023-03-30T06:23:50;9.80;1.00
13850;DHT22;6995;52.618;13.488;2023-03-30T06:26:16;9.90;1.00
13850;DHT22;6995;52.618;13.488;2023-03-30T06:28:42;10.00;1.00
13850;DHT22;6995;52.618;13.488;2023-03-30T06:31:09;10.00;1.00
13850;DHT22;6995;52.618;13.488;2023-03-30T06:33:35;10.10;1.00
13850;DHT22;6995;52.618;13.488;2023-03-30T06:36:03;10.20;1.00
13850;DHT22;6995;52.618;13.488;2023-03-30T06:38:29;10.40;99.90
13850;DHT22;6995;52.618;13.488;2023-03-30T06:40:57;10.50;99.90
13850;DHT22;6995;52.618;13.488;2023-03-30T06:43:24;10.70;99.90
13850;DHT22;6995;52.618;13.488;2023-03-30T06:45:56;10.70;99.90
13850;DHT22;6995;52.618;13.488;2023-03-30T06:48:23;10.70;99.90
13850;DHT22;6995;52.618;13.488;2023-03-30T06:50:52;10.80;99.90
13850;DHT22;6995;52.618;13.488;2023-03-30T06:53:22;10.80;99.90
13850;DHT22;6995;52.618;13.488;2023-03-30T06:55:56;10.80;99.90
13850;DHT22;6995;52.618;13.488;2023-03-30T06:58:23;10.90;99.90
13850;DHT22;6995;52.618;13.488;2023-03-30T07:00:50;10.90;99.90
13850;DHT22;6995;52.618;13.488;2023-03-30T07:03:22;10.90;99.90
13850;DHT22;6995;52.618;13.488;2023-03-30T07:05:49;10.90;99.90
13850;DHT22;6995;52.618;13.488;2023-03-30T07:08:17;11.00;99.90
13850;DHT22;6995;52.618;13.488;2023-03-30T07:10:49;11.00;99.90
13850;DHT22;6995;52.618;13.488;2023-03-30T07:13:16;11.00;99.90
13850;DHT22;6995;52.618;13.488;2023-03-30T07:15:44;11.00;99.90
13850;DHT22;6995;52.618;13.488;2023-03-30T07:18:11;11.00;99.90
13850;DHT22;6995;52.618;13.488;2023-03-30T07:20:39;11.00;99.90
13850;DHT22;6995;52.618;13.488;2023-03-30T07:23:06;11.10;99.90
13850;DHT22;6995;52.618;13.488;2023-03-30T07:25:32;11.20;99.90
13850;DHT22;6995;52.618;13.488;2023-03-30T07:27:58;11.70;99.90
13850;DHT22;6995;52.618;13.488;2023-03-30T07:30:23;12.00;99.90
13850;DHT22;6995;52.618;13.488;2023-03-30T07:32:50;12.10;99.90
13850;DHT22;6995;52.618;13.488;2023-03-30T07:35:16;12.20;99.90
13850;DHT22;6995;52.618;13.488;2023-03-30T07:37:44;12.30;99.90
13850;DHT22;6995;52.618;13.488;2023-03-30T07:40:10;12.50;99.90
13850;DHT22;6995;52.618;13.488;2023-03-30T07:42:37;12.60;99.90
13850;DHT22;6995;52.618;13.488;2023-03-30T07:45:03;12.70;99.90
13850;DHT22;6995;52.618;13.488;2023-03-30T07:47:29;12.80;99.90
13850;DHT22;6995;52.618;13.488;2023-03-30T07:49:58;13.00;99.90
13850;DHT22;6995;52.618;13.488;2023-03-30T07:52:24;13.20;99.90
13850;DHT22;6995;52.618;13.488;2023-03-30T07:54:49;13.50;99.90
13850;DHT22;6995;52.618;13.488;2023-03-30T07:57:16;13.70;99.90
13850;DHT22;6995;52.618;13.488;2023-03-30T07:59:42;13.60;99.90
13850;DHT22;6995;52.618;13.488;2023-03-30T08:02:11;13.60;99.90
13850;DHT22;6995;52.618;13.488;2023-03-30T08:04:38;13.60;99.90
13850;DHT22;6995;52.618;13.488;2023-03-30T08:07:08;13.30;99.90
13850;DHT22;6995;52.618;13.488;2023-03-30T08:09:35;13.20;99.90
13850;DHT22;6995;52.618;13.488;2023-03-30T08:12:01;13.30;99.90
13850;DHT22;6995;52.618;13.488;2023-03-30T08:14:30;13.50;99.90
13850;DHT22;6995;52.618;13.488;2023-03-30T08:16:58;13.70;99.90
13850;DHT22;6995;52.618;13.488;2023-03-30T08:19:27;13.70;99.90
13850;DHT22;6995;52.618;13.488;2023-03-30T08:21:53;13.70;99.90
13850;DHT22;6995;52.618;13.488;2023-03-30T08:24:19;13.80;99.90
13850;DHT22;6995;52.618;13.488;2023-03-30T08:27:02;14.10;99.90
13850;DHT22;6995;52.618;13.488;2023-03-30T08:29:34;14.10;99.90
13850;DHT22;6995;52.618;13.488;2023-03-30T08:32:37;14.30;99.90
13850;DHT22;6995;52.618;13.488;2023-03-30T08:35:09;14.30;99.90
13850;DHT22;6995;52.618;13.488;2023-03-30T08:37:46;14.20;99.90
13850;DHT22;6995;52.618;13.488;2023-03-30T08:46:14;14.30;99.90
13850;DHT22;6995;52.618;13.488;2023-03-30T08:51:59;14.50;99.90
13850;DHT22;6995;52.618;13.488;2023-03-30T08:55:00;14.70;99.90
13850;DHT22;6995;52.618;13.488;2023-03-30T09:00:56;15.30;99.90
13850;DHT22;6995;52.618;13.488;2023-03-30T09:03:53;15.60;99.90
13850;DHT22;6995;52.618;13.488;2023-03-30T09:09:06;15.70;99.90
13850;DHT22;6995;52.618;13.488;2023-03-30T09:11:37;16.00;99.90
13850;DHT22;6995;52.618;13.488;2023-03-30T09:14:15;16.10;99.90
13850;DHT22;6995;52.618;13.488;2023-03-30T09:17:09;16.10;99.90
13850;DHT22;6995;52.618;13.488;2023-03-30T09:20:22;16.50;99.90
13850;DHT22;6995;52.618;13.488;2023-03-30T09:33:52;17.20;99.90
13850;DHT22;6995;52.618;13.488;2023-03-30T09:39:57;17.10;99.90
13850;DHT22;6995;52.618;13.488;2023-03-30T09:42:46;17.30;99.90
13850;DHT22;6995;52.618;13.488;2023-03-30T09:45:38;17.30;99.90
13850;DHT22;6995;52.618;13.488;2023-03-30T09:48:12;17.50;99.90
13850;DHT22;6995;52.618;13.488;2023-03-30T09:51:24;17.60;99.90
13850;DHT22;6995;52.618;13.488;2023-03-30T09:54:05;17.80;99.90
13850;DHT22;6995;52.618;13.488;2023-03-30T09:56:42;17.80;99.90
13850;DHT22;6995;52.618;13.488;2023-03-30T09:59:58;17.70;99.90
13850;DHT22;6995;52.618;13.488;2023-03-30T10:02:55;17.80;99.90
13850;DHT22;6995;52.618;13.488;2023-03-30T10:05:22;18.00;99.90
13850;DHT22;6995;52.618;13.488;2023-03-30T10:14:01;17.90;99.90
13850;DHT22;6995;52.618;13.488;2023-03-30T10:16:50;17.80;99.90
13850;DHT22;6995;52.618;13.488;2023-03-30T10:19:47;17.90;99.90
13850;DHT22;6995;52.618;13.488;2023-03-30T10:22:20;18.10;99.90
13850;DHT22;6995;52.618;13.488;2023-03-30T10:25:03;17.80;99.90
13850;DHT22;6995;52.618;13.488;2023-03-30T10:27:56;17.90;99.90
13850;DHT22;6995;52.618;13.488;2023-03-30T10:30:30;17.90;99.90
13850;DHT22;6995;52.618;13.488;2023-03-30T10:33:10;17.70;99.90
13850;DHT22;6995;52.618;13.488;2023-03-30T10:35:40;17.80;99.90
13850;DHT22;6995;52.618;13.488;2023-03-30T10:38:47;17.70;99.90
13850;DHT22;6995;52.618;13.488;2023-03-30T10:41:24;17.70;99.90
13850;DHT22;6995;52.618;13.488;2023-03-30T11:00:05;17.70;99.90
13850;DHT22;6995;52.618;13.488;2023-03-30T11:03:03;18.00;99.90
13850;DHT22;6995;52.618;13.488;2023-03-30T11:05:42;18.10;99.90
13850;DHT22;6995;52.618;13.488;2023-03-30T11:08:17;18.20;99.90
13850;DHT22;6995;52.618;13.488;2023-03-30T11:10:55;17.90;99.90
13850;DHT22;6995;52.618;13.488;2023-03-30T11:13:59;18.00;99.90
13850;DHT22;6995;52.618;13.488;2023-03-30T11:19:42;17.90;99.90
13850;DHT22;6995;52.618;13.488;2023-03-30T11:28:46;18.30;99.90
13850;DHT22;6995;52.618;13.488;2023-03-30T11:35:14;18.10;99.90
13850;DHT22;6995;52.618;13.488;2023-03-30T11:40:51;17.90;99.90
13850;DHT22;6995;52.618;13.488;2023-03-30T11:43:35;18.00;99.90
13850;DHT22;6995;52.618;13.488;2023-03-30T11:46:18;18.00;99.90
13850;DHT22;6995;52.618;13.488;2023-03-30T12:02:13;18.10;99.90
13850;DHT22;6995;52.618;13.488;2023-03-30T12:05:01;18.30;99.90
13850;DHT22;6995;52.618;13.488;2023-03-30T12:10:57;18.50;99.90
13850;DHT22;6995;52.618;13.488;2023-03-30T12:13:29;18.80;99.90
13850;DHT22;6995;52.618;13.488;2023-03-30T12:16:26;18.50;99.90
13850;DHT22;6995;52.618;13.488;2023-03-30T12:21:57;18.80;99.90
13850;DHT22;6995;52.618;13.488;2023-03-30T12:28:14;18.60;99.90
13850;DHT22;6995;52.618;13.488;2023-03-30T12:31:03;19.20;99.90
13850;DHT22;6995;52.618;13.488;2023-03-30T12:33:47;19.40;99.90
13850;DHT22;6995;52.618;13.488;2023-03-30T12:40:02;19.40;99.90
13850;DHT22;6995;52.618;13.488;2023-03-30T12:46:00;19.30;99.90
13850;DHT22;6995;52.618;13.488;2023-03-30T12:49:22;19.80;99.90
13850;DHT22;6995;52.618;13.488;2023-03-30T13:04:35;21.30;99.90
13850;DHT22;6995;52.618;13.488;2023-03-30T13:07:29;21.90;99.90
13850;DHT22;6995;52.618;13.488;2023-03-30T13:22:28;20.30;99.90
13850;DHT22;6995;52.618;13.488;2023-03-30T13:28:32;19.90;99.90
13850;DHT22;6995;52.618;13.488;2023-03-30T13:31:56;19.60;99.90
13850;DHT22;6995;52.618;13.488;2023-03-30T13:35:25;19.20;99.90
13850;DHT22;6995;52.618;13.488;2023-03-30T13:50:19;18.10;99.90
13850;DHT22;6995;52.618;13.488;2023-03-30T13:52:54;16.20;99.90
13850;DHT22;6995;52.618;13.488;2023-03-30T13:55:45;14.20;99.90
13850;DHT22;6995;52.618;13.488;2023-03-30T13:58:25;13.20;99.90
13850;DHT22;6995;52.618;13.488;2023-03-30T14:01:12;12.60;99.90
13850;DHT22;6995;52.618;13.488;2023-03-30T14:03:48;12.30;1.00
13850;DHT22;6995;52.618;13.488;2023-03-30T14:06:20;11.90;1.00
13850;DHT22;6995;52.618;13.488;2023-03-30T14:09:07;11.70;1.00
13850;DHT22;6995;52.618;13.488;2023-03-30T14:11:43;11.60;1.00
13850;DHT22;6995;52.618;13.488;2023-03-30T14:28:46;11.60;1.00
13850;DHT22;6995;52.618;13.488;2023-03-30T14:31:21;11.60;1.00
13850;DHT22;6995;52.618;13.488;2023-03-30T14:33:47;11.70;1.00
13850;DHT22;6995;52.618;13.488;2023-03-30T14:36:22;11.70;1.00
13850;DHT22;6995;52.618;13.488;2023-03-30T14:38:58;11.70;1.00
13850;DHT22;6995;52.618;13.488;2023-03-30T14:41:48;11.70;1.00
13850;DHT22;6995;52.618;13.488;2023-03-30T14:44:43;11.80;1.00
13850;DHT22;6995;52.618;13.488;2023-03-30T14:47:20;11.90;1.00
13850;DHT22;6995;52.618;13.488;2023-03-30T14:53:03;12.00;1.00
13850;DHT22;6995;52.618;13.488;2023-03-30T14:55:38;12.00;1.00
13850;DHT22;6995;52.618;13.488;2023-03-30T14:58:18;12.10;1.00
13850;DHT22;6995;52.618;13.488;2023-03-30T15:01:13;12.10;1.00
13850;DHT22;6995;52.618;13.488;2023-03-30T15:04:18;12.10;1.00
13850;DHT22;6995;52.618;13.488;2023-03-30T15:06:56;12.20;1.00
13850;DHT22;6995;52.618;13.488;2023-03-30T15:10:00;12.20;1.00
13850;DHT22;6995;52.618;13.488;2023-03-30T15:15:41;12.20;1.00
13850;DHT22;6995;52.618;13.488;2023-03-30T15:18:15;12.30;1.00
13850;DHT22;6995;52.618;13.488;2023-03-30T15:21:28;12.20;1.00
13850;DHT22;6995;52.618;13.488;2023-03-30T15:24:22;12.30;1.00
13850;DHT22;6995;52.618;13.488;2023-03-30T15:27:13;12.40;1.00
13850;DHT22;6995;52.618;13.488;2023-03-30T15:29:46;12.30;1.00
13850;DHT22;6995;52.618;13.488;2023-03-30T15:32:31;12.40;1.00
13850;DHT22;6995;52.618;13.488;2023-03-30T15:38:11;12.30;1.00
13850;DHT22;6995;52.618;13.488;2023-03-30T15:40:45;12.20;1.00
13850;DHT22;6995;52.618;13.488;2023-03-30T15:43:29;12.30;1.00
13850;DHT22;6995;52.618;13.488;2023-03-30T15:46:05;12.30;1.00
13850;DHT22;6995;52.618;13.488;2023-03-30T15:48:47;12.30;1.00
13850;DHT22;6995;52.618;13.488;2023-03-30T15:51:43;12.30;1.00
13850;DHT22;6995;52.618;13.488;2023-03-30T15:54:15;12.40;1.00
13850;DHT22;6995;52.618;13.488;2023-03-30T15:59:59;12.60;1.00
13850;DHT22;6995;52.618;13.488;2023-03-30T16:03:04;12.50;1.00
13850;DHT22;6995;52.618;13.488;2023-03-30T16:05:33;12.60;1.00
13850;DHT22;6995;52.618;13.488;2023-03-30T16:07:59;12.50;1.00
13850;DHT22;6995;52.618;13.488;2023-03-30T16:10:30;12.60;1.00
13850;DHT22;6995;52.618;13.488;2023-03-30T16:12:57;12.60;1.00
13850;DHT22;6995;52.618;13.488;2023-03-30T16:15:27;12.60;1.00
13850;DHT22;6995;52.618;13.488;2023-03-30T16:18:04;12.60;1.00
13850;DHT22;6995;52.618;13.488;2023-03-30T16:20:35;12.50;1.00
13850;DHT22;6995;52.618;13.488;2023-03-30T16:23:11;12.60;1.00
13850;DHT22;6995;52.618;13.488;2023-03-30T16:26:16;12.50;1.00
13850;DHT22;6995;52.618;13.488;2023-03-30T16:29:04;12.60;1.00
13850;DHT22;6995;52.618;13.488;2023-03-30T16:31:56;12.60;1.00
13850;DHT22;6995;52.618;13.488;2023-03-30T16:34:46;12.70;1.00
13850;DHT22;6995;52.618;13.488;2023-03-30T16:40:50;12.90;1.00
13850;DHT22;6995;52.618;13.488;2023-03-30T16:47:19;12.90;1.00
13850;DHT22;6995;52.618;13.488;2023-03-30T19:20:45;11.70;1.00
13850;DHT22;6995;52.618;13.488;2023-03-30T19:23:34;11.00;1.00
13850;DHT22;6995;52.618;13.488;2023-03-30T19:26:03;10.70;1.00
13850;DHT22;6995;52.618;13.488;2023-03-30T19:28:39;10.60;1.00
13850;DHT22;6995;52.618;13.488;2023-03-30T19:31:12;10.40;1.00
13850;DHT22;6995;52.618;13.488;2023-03-30T19:33:55;10.30;1.00
13850;DHT22;6995;52.618;13.488;2023-03-30T19:36:43;10.20;1.00
13850;DHT22;6995;52.618;13.488;2023-03-30T19:44:58;10.10;99.90
13850;DHT22;6995;52.618;13.488;2023-03-30T20:11:45;10.00;99.90
13850;DHT22;6995;52.618;13.488;2023-03-30T20:14:12;10.10;99.90
13850;DHT22;6995;52.618;13.488;2023-03-30T20:16:38;10.10;99.90
13850;DHT22;6995;52.618;13.488;2023-03-30T20:19:05;10.00;99.90
13850;DHT22;6995;52.618;13.488;2023-03-30T20:21:34;9.90;99.90
13850;DHT22;6995;52.618;13.488;2023-03-30T20:27:45;9.80;99.90
13850;DHT22;6995;52.618;13.488;2023-03-30T20:30:20;9.70;99.90
13850;DHT22;6995;52.618;13.488;2023-03-30T20:32:47;9.70;99.90
13850;DHT22;6995;52.618;13.488;2023-03-30T20:35:27;9.70;99.90
13850;DHT22;6995;52.618;13.488;2023-03-30T20:40:55;9.80;99.90
13850;DHT22;6995;52.618;13.488;2023-03-30T20:43:24;9.80;99.90
13850;DHT22;6995;52.618;13.488;2023-03-30T20:45:54;9.80;99.90
13850;DHT22;6995;52.618;13.488;2023-03-30T20:48:35;9.80;99.90
13850;DHT22;6995;52.618;13.488;2023-03-30T20:51:11;9.80;99.90
13850;DHT22;6995;52.618;13.488;2023-03-30T20:53:43;9.70;99.90
13850;DHT22;6995;52.618;13.488;2023-03-30T20:56:15;9.70;99.90
13850;DHT22;6995;52.618;13.488;2023-03-30T20:58:41;9.70;99.90
13850;DHT22;6995;52.618;13.488;2023-03-30T21:01:17;9.60;99.90
13850;DHT22;6995;52.618;13.488;2023-03-30T21:03:44;9.60;99.90
13850;DHT22;6995;52.618;13.488;2023-03-30T21:06:14;9.60;99.90
13850;DHT22;6995;52.618;13.488;2023-03-30T21:08:45;9.60;99.90
13850;DHT22;6995;52.618;13.488;2023-03-30T21:11:12;9.60;99.90
13850;DHT22;6995;52.618;13.488;2023-03-30T21:13:38;9.60;99.90
13850;DHT22;6995;52.618;13.488;2023-03-30T21:16:06;9.70;91.40
13850;DHT22;6995;52.618;13.488;2023-03-30T21:18:32;9.70;76.20
13850;DHT22;6995;52.618;13.488;2023-03-30T21:20:58;9.70;51.80
13850;DHT22;6995;52.618;13.488;2023-03-30T21:23:31;9.80;49.90
13850;DHT22;6995;52.618;13.488;2023-03-30T21:28:39;9.80;16.80
13850;DHT22;6995;52.618;13.488;2023-03-30T21:31:10;9.80;20.10
13850;DHT22;6995;52.618;13.488;2023-03-30T21:33:36;9.80;1.00
13850;DHT22;6995;52.618;13.488;2023-03-30T21:36:03;9.80;1.00
13850;DHT22;6995;52.618;13.488;2023-03-30T21:38:29;9.80;1.00
13850;DHT22;6995;52.618;13.488;2023-03-30T21:40:59;9.80;1.00
13850;DHT22;6995;52.618;13.488;2023-03-30T21:43:30;9.90;1.00
13850;DHT22;6995;52.618;13.488;2023-03-30T21:46:02;9.90;1.00
13850;DHT22;6995;52.618;13.488;2023-03-30T21:48:30;9.90;1.00
13850;DHT22;6995;52.618;13.488;2023-03-30T21:50:59;10.00;1.00
13850;DHT22;6995;52.618;13.488;2023-03-30T21:53:26;10.00;1.00
13850;DHT22;6995;52.618;13.488;2023-03-30T21:55:53;10.00;1.00
13850;DHT22;6995;52.618;13.488;2023-03-30T21:58:19;10.00;1.00
13850;DHT22;6995;52.618;13.488;2023-03-30T22:00:48;10.10;1.00
13850;DHT22;6995;52.618;13.488;2023-03-30T22:03:17;10.10;1.00
13850;DHT22;6995;52.618;13.488;2023-03-30T22:06:05;10.10;1.00
13850;DHT22;6995;52.618;13.488;2023-03-30T22:12:06;10.20;1.00
13850;DHT22;6995;52.618;13.488;2023-03-30T22:14:33;10.20;1.00
13850;DHT22;6995;52.618;13.488;2023-03-30T22:17:22;10.20;1.00
13850;DHT22;6995;52.618;13.488;2023-03-30T22:20:29;10.30;1.00
13850;DHT22;6995;52.618;13.488;2023-03-30T22:22:58;10.30;1.00
13850;DHT22;6995;52.618;13.488;2023-03-30T22:25:31;10.30;1.00
13850;DHT22;6995;52.618;13.488;2023-03-30T22:28:00;10.30;1.00
13850;DHT22;6995;52.618;13.488;2023-03-30T22:31:08;10.30;1.00
13850;DHT22;6995;52.618;13.488;2023-03-30T22:34:00;10.40;1.00
13850;DHT22;6995;52.618;13.488;2023-03-30T22:37:15;10.40;1.00
13850;DHT22;6995;52.618;13.488;2023-03-30T22:58:33;10.40;1.00
13850;DHT22;6995;52.618;13.488;2023-03-30T23:01:03;10.40;1.00
13850;DHT22;6995;52.618;13.488;2023-03-30T23:03:36;10.50;1.00
13850;DHT22;6995;52.618;13.488;2023-03-30T23:06:33;10.50;1.00
13850;DHT22;6995;52.618;13.488;2023-03-30T23:09:05;10.50;1.00
13850;DHT22;6995;52.618;13.488;2023-03-30T23:11:40;10.50;1.00
13850;DHT22;6995;52.618;13.488;2023-03-30T23:14:22;10.60;1.00
13850;DHT22;6995;52.618;13.488;2023-03-30T23:16:57;10.60;1.00
13850;DHT22;6995;52.618;13.488;2023-03-30T23:19:42;10.60;1.00
13850;DHT22;6995;52.618;13.488;2023-03-30T23:25:50;10.70;1.00
13850;DHT22;6995;52.618;13.488;2023-03-30T23:30:57;10.80;1.00
13850;DHT22;6995;52.618;13.488;2023-03-30T23:33:40;10.80;1.00
13850;DHT22;6995;52.618;13.488;2023-03-30T23:36:15;10.80;1.00
13850;DHT22;6995;52.618;13.488;2023-03-30T23:42:35;10.90;1.00
13850;DHT22;6995;52.618;13.488;2023-03-30T23:45:19;10.90;1.00
13850;DHT22;6995;52.618;13.488;2023-03-30T23:47:49;10.90;1.00
